New London, NH (03257)

11:15 AM EST on February 09, 2016 (GMT -0500)
Parkside | | Change Station
CLOSE
Current Station
Personal Weather Station
Location: New London, NH
Elevation: 1263 ft
Nearby Weather Stations

Elev 1263 ft 43.42 °N, 72.00 °W | Updated 51 seconds ago

Overcast
Overcast
21.4 °F
Feels Like 21 °F
N
0.0
Wind Variable Wind from ESE

Today
High -- | Low -- °F
--% Chance of Precip.
Yesterday
High -- | Low -- °F
Precip. -- in
Pressure 29.67 in
Visibility 3.0 miles
Clouds Few 1400 ft
Mostly Cloudy 2900 ft
Overcast 3800 ft
Windchill 21 °F
Dew Point 15 °F
Humidity 77%
Rainfall 0.00 in
Snow Depth Not available.
6:55 AM 5:09 PM
New Moon, 2% visible
SPECI KLEB 091607Z 00000KT 3SM -SN FEW014 BKN029 OVC038 M06/M09 A2967 RMK AO2 P0000 T10561094
Pressure 29.67 in
Visibility 3.0 miles
Clouds Few 1400 ft
Mostly Cloudy 2900 ft
Overcast 3800 ft
Windchill 21 °F
Dew Point 15 °F
Humidity 77%
Rainfall 0.00 in
Snow Depth Not available.
6:55 AM 5:09 PM
New Moon, 2% visible
SPECI KLEB 091607Z 00000KT 3SM -SN FEW014 BKN029 OVC038 M06/M09 A2967 RMK AO2 P0000 T10561094

10-Day Weather Forecast

Almanac

Astronomy

Feb. 09, 2016 Rise Set
Actual Time
Civil Twilight
Nautical Twilight
Astronomical Twilight
Moon
Length of Visible Light
Length of Day
Tomorrow will be .
, % of the Moon is Illuminated

Today's Extremes

State Highs State Lows

Community

WunderPhotos

Upload Photos

1,891,629 photos uploaded!

WunderBlog® & News

Nearby

Air Quality

  Air Quality AQ Index Pollutant
Not available.

Snow Depth

Station Depth Elevation

Earthquake Activity

City Distance Mag. Time & Date
Minimum magnitude displayed is 2.5.

Coastal Water Temperatures

Place Temperature

Stations

Nearby Weather Stations

Station Location Temp. Windchill Dew Point Humidity Wind Precip. Elev Updated Type
                   

Watches & Warnings

There are currently no watches in effect.